Terminal Aerodrome Forecast
Issued by NWS North Platte, NE

Home | Current Version | Previous Version | Graphics & Text | Print | Product List | Glossary Off
Versions: 1 2 3 4 5 6 7 8 9 10 11 12 13 14 15 16 17 18 19 20 21 22 23 24 25 26 27 28

000
FTUS43 KLBF 260700 AAA
TAFVTN
TAF AMD
KVTN 260730Z 2608/2706 34004KT P6SM FEW025 OVC060
     FM260900 35003KT 3SM BR SCT009 OVC015
     FM261300 35006KT P6SM OVC020
     FM261500 36007KT P6SM OVC040
     FM261800 36008KT P6SM BKN050=

USA.gov is the U.S. government's official web portal to all federal, state and local government web resources and services.